Time;durP1;ratioP1;P1;durP2;ratioP2;P2;SDS_P1;SDS_P2;PMS_P1;PMS_P2;Temp;Humidity;BMP_temperature;BMP_pressure;BME280_temperature;BME280_humidity;BME280_pressure;Samples;Min_cycle;Max_cycle;Signal;HPM_P1;HPM_P2
2022/04/05 00:00:47;;;;;;;;;;;8.00;31.20;;;;;;5035639;28;19920;-83
2022/04/05 00:03:12;;;;;;;;;;;8.00;31.70;;;;;;5035833;28;19971;-82
2022/04/05 00:05:38;;;;;;;;;;;8.10;30.90;;;;;;5036516;28;19928;-82
2022/04/05 00:08:03;;;;;;;;;;;8.10;30.90;;;;;;5035741;28;20369;-82
2022/04/05 00:10:29;;;;;;;;;;;8.10;31.10;;;;;;5035912;28;20297;-83
2022/04/05 00:12:54;;;;;;;;;;;8.10;30.70;;;;;;5035629;28;19924;-84
2022/04/05 00:15:20;;;;;;;;;;;8.10;31.70;;;;;;5033514;28;19964;-83
2022/04/05 00:17:45;;;;;;;;;;;8.20;32.30;;;;;;5036919;28;20029;-84
2022/04/05 00:20:11;;;;;;;;;;;8.20;31.80;;;;;;5035050;28;19929;-82
2022/04/05 00:22:36;;;;;;;;;;;8.20;32.40;;;;;;5035340;28;19920;-82
2022/04/05 00:25:03;;;;;;;;;;;8.20;33.50;;;;;;5034905;28;19917;-84
2022/04/05 00:27:28;;;;;;;;;;;8.20;34.50;;;;;;5035734;28;19920;-84
2022/04/05 00:29:55;;;;;;;;;;;8.20;34.90;;;;;;5034534;28;19913;-83
2022/04/05 00:32:20;;;;;;;;;;;8.20;35.40;;;;;;5032154;28;19912;-83
2022/04/05 00:34:46;;;;;;;;;;;8.20;36.10;;;;;;5035889;28;19917;-83
2022/04/05 00:37:11;;;;;;;;;;;8.30;36.90;;;;;;5034383;28;19967;-83
2022/04/05 00:39:37;;;;;;;;;;;8.30;36.60;;;;;;5035615;28;19935;-84
2022/04/05 00:42:02;;;;;;;;;;;8.30;36.40;;;;;;5034785;28;19913;-83
2022/04/05 00:44:28;;;;;;;;;;;8.30;36.40;;;;;;5033030;28;20004;-84
2022/04/05 00:46:54;;;;;;;;;;;8.30;36.60;;;;;;5034688;28;20377;-84
2022/04/05 00:49:37;;;;;;;;;;;8.30;37.30;;;;;;5033955;28;19921;-82
2022/04/05 00:52:03;;;;;;;;;;;8.30;37.20;;;;;;5033514;28;19913;-83
2022/04/05 00:54:30;;;;;;;;;;;8.40;37.80;;;;;;5035582;28;19932;-82
2022/04/05 00:56:56;;;;;;;;;;;8.40;38.00;;;;;;5034556;28;19958;-84
2022/04/05 00:59:23;;;;;;;;;;;8.40;38.10;;;;;;5031938;28;19917;-83
2022/04/05 01:01:49;;;;;;;;;;;8.40;38.70;;;;;;5032378;28;19951;-83
2022/04/05 01:04:15;;;;;;;;;;;8.50;39.60;;;;;;5032403;28;19921;-83
2022/04/05 01:06:43;;;;;;;;;;;8.50;40.10;;;;;;5036011;28;19913;-83
2022/04/05 01:09:09;;;;;;;;;;;8.50;41.50;;;;;;5033915;28;19913;-83
2022/04/05 01:11:34;;;;;;;;;;;8.50;42.00;;;;;;5030266;28;19917;-82
2022/04/05 01:14:00;;;;;;;;;;;8.50;43.80;;;;;;5034223;28;19921;-82
2022/04/05 01:16:25;;;;;;;;;;;8.50;44.60;;;;;;5036880;28;19920;-83
2022/04/05 01:18:51;;;;;;;;;;;8.60;45.20;;;;;;5037762;28;19923;-82
2022/04/05 01:21:17;;;;;;;;;;;8.60;46.10;;;;;;5037853;28;20251;-83
2022/04/05 01:24:01;;;;;;;;;;;8.60;46.30;;;;;;5039120;28;19935;-84
2022/04/05 01:26:26;;;;;;;;;;;8.60;46.10;;;;;;5036840;28;19917;-84
2022/04/05 01:28:52;;;;;;;;;;;8.60;46.40;;;;;;5035884;28;20067;-84
2022/04/05 01:31:18;;;;;;;;;;;8.60;46.30;;;;;;5030054;28;19920;-82
2022/04/05 01:33:43;;;;;;;;;;;8.70;46.30;;;;;;5030490;28;19921;-83
2022/04/05 01:36:19;;;;;;;;;;;8.60;46.40;;;;;;5035128;28;19940;-82
2022/04/05 01:38:44;;;;;;;;;;;8.70;46.70;;;;;;5034178;28;19913;-84
2022/04/05 01:41:10;;;;;;;;;;;8.70;47.10;;;;;;5035996;28;20377;-82
2022/04/05 01:43:35;;;;;;;;;;;8.70;47.40;;;;;;5035598;28;19917;-84
2022/04/05 01:46:01;;;;;;;;;;;8.70;47.80;;;;;;5034509;28;19923;-84
2022/04/05 01:48:26;;;;;;;;;;;8.80;48.00;;;;;;5035695;28;19913;-83
2022/04/05 01:50:52;;;;;;;;;;;8.80;48.10;;;;;;5031352;28;20442;-83
2022/04/05 01:53:17;;;;;;;;;;;8.80;48.40;;;;;;5034529;28;19921;-85
2022/04/05 01:55:43;;;;;;;;;;;8.80;49.60;;;;;;5024498;28;19969;-84
2022/04/05 01:58:08;;;;;;;;;;;8.80;50.50;;;;;;5034503;28;19913;-83
2022/04/05 02:00:33;;;;;;;;;;;8.80;50.70;;;;;;5032971;28;20051;-84
2022/04/05 02:02:59;;;;;;;;;;;8.80;51.40;;;;;;5035865;28;19976;-84
2022/04/05 02:05:24;;;;;;;;;;;8.90;52.60;;;;;;5032050;28;20287;-83
2022/04/05 02:07:50;;;;;;;;;;;8.80;53.20;;;;;;5033555;28;19960;-82
2022/04/05 02:10:15;;;;;;;;;;;8.90;53.60;;;;;;5034930;28;19971;-82
2022/04/05 02:12:41;;;;;;;;;;;8.90;54.20;;;;;;5032004;28;19928;-82
2022/04/05 02:15:07;;;;;;;;;;;8.90;54.50;;;;;;5034736;28;19924;-83
2022/04/05 02:17:33;;;;;;;;;;;8.90;55.20;;;;;;5036164;28;19920;-82
2022/04/05 02:20:00;;;;;;;;;;;8.90;55.80;;;;;;5034490;28;20301;-81
2022/04/05 02:22:26;;;;;;;;;;;8.90;56.30;;;;;;5033308;28;19914;-83
2022/04/05 02:24:52;;;;;;;;;;;9.00;57.20;;;;;;5034966;28;19925;-82
2022/04/05 02:27:18;;;;;;;;;;;9.00;57.70;;;;;;5033488;28;20044;-84
2022/04/05 02:29:43;;;;;;;;;;;9.00;57.90;;;;;;5035841;28;19913;-82
2022/04/05 02:32:09;;;;;;;;;;;9.00;57.90;;;;;;5036026;28;19938;-82
2022/04/05 02:34:34;;;;;;;;;;;9.00;57.80;;;;;;5036746;28;19924;-82
2022/04/05 02:37:00;;;;;;;;;;;9.10;57.80;;;;;;5032928;28;19914;-82
2022/04/05 02:39:25;;;;;;;;;;;9.10;58.20;;;;;;5037014;28;19964;-83
2022/04/05 02:41:51;;;;;;;;;;;9.10;58.30;;;;;;5035803;28;19955;-83
2022/04/05 02:44:16;;;;;;;;;;;9.10;58.80;;;;;;5035142;28;20296;-82
2022/04/05 02:46:42;;;;;;;;;;;9.10;58.90;;;;;;5036802;28;20463;-84
2022/04/05 02:49:09;;;;;;;;;;;9.10;59.00;;;;;;5037507;28;19913;-83
2022/04/05 02:51:34;;;;;;;;;;;9.10;59.10;;;;;;5035196;28;19920;-83
2022/04/05 02:54:00;;;;;;;;;;;9.20;59.50;;;;;;5034695;28;19917;-82
2022/04/05 02:56:25;;;;;;;;;;;9.20;60.00;;;;;;5036950;28;20012;-83
2022/04/05 02:58:51;;;;;;;;;;;9.20;60.40;;;;;;5039517;28;19917;-83
2022/04/05 03:01:16;;;;;;;;;;;9.20;61.10;;;;;;5036961;28;19916;-83
2022/04/05 03:03:42;;;;;;;;;;;9.20;61.40;;;;;;5035860;28;19920;-83
2022/04/05 03:06:07;;;;;;;;;;;9.20;61.80;;;;;;5036013;28;19913;-83
2022/04/05 03:08:33;;;;;;;;;;;9.20;62.80;;;;;;5036867;28;20330;-84
2022/04/05 03:10:58;;;;;;;;;;;9.30;63.30;;;;;;5038287;28;19920;-84
2022/04/05 03:13:24;;;;;;;;;;;9.30;63.30;;;;;;5036226;28;19913;-84
2022/04/05 03:15:49;;;;;;;;;;;9.30;63.40;;;;;;5036733;28;20304;-84
2022/04/05 03:18:15;;;;;;;;;;;9.30;63.60;;;;;;5037872;28;19913;-84
2022/04/05 03:20:40;;;;;;;;;;;9.30;63.90;;;;;;5037346;28;20013;-84
2022/04/05 03:23:07;;;;;;;;;;;9.30;63.90;;;;;;5027660;28;19952;-83
2022/04/05 03:25:32;;;;;;;;;;;9.30;64.00;;;;;;5036227;28;19948;-84
2022/04/05 03:28:02;;;;;;;;;;;9.30;64.00;;;;;;5037650;28;20392;-84
2022/04/05 03:30:27;;;;;;;;;;;9.30;64.00;;;;;;5040550;28;19924;-82
2022/04/05 03:32:53;;;;;;;;;;;9.30;63.90;;;;;;5045385;28;19972;-84
2022/04/05 03:35:19;;;;;;;;;;;9.30;64.10;;;;;;5043763;28;19917;-83
2022/04/05 03:37:44;;;;;;;;;;;9.30;64.50;;;;;;5033221;28;19920;-82
2022/04/05 03:40:12;;;;;;;;;;;9.40;64.30;;;;;;5028641;28;19917;-82
2022/04/05 03:42:37;;;;;;;;;;;9.40;64.60;;;;;;5030951;28;19920;-82
2022/04/05 03:45:03;;;;;;;;;;;9.40;64.40;;;;;;5032599;28;20343;-83
2022/04/05 03:47:30;;;;;;;;;;;9.40;64.60;;;;;;5034302;28;19947;-82
2022/04/05 03:49:56;;;;;;;;;;;9.40;64.90;;;;;;5033937;28;19928;-82
2022/04/05 03:52:21;;;;;;;;;;;9.40;64.90;;;;;;5033705;28;19921;-82
2022/04/05 03:54:47;;;;;;;;;;;9.40;65.40;;;;;;5033945;28;20408;-82
2022/04/05 03:57:12;;;;;;;;;;;9.40;65.50;;;;;;5034584;28;20020;-84
2022/04/05 03:59:37;;;;;;;;;;;9.50;65.60;;;;;;5031840;28;19917;-83
2022/04/05 04:02:04;;;;;;;;;;;9.50;65.80;;;;;;5033932;28;19980;-83
2022/04/05 04:04:29;;;;;;;;;;;9.50;65.90;;;;;;5032627;28;19992;-82
2022/04/05 04:06:55;;;;;;;;;;;9.50;65.90;;;;;;5034240;28;19955;-82
2022/04/05 04:09:21;;;;;;;;;;;9.50;65.70;;;;;;5035177;28;20352;-83
2022/04/05 04:11:47;;;;;;;;;;;9.50;65.80;;;;;;5033716;28;19985;-83
2022/04/05 04:14:13;;;;;;;;;;;9.60;66.20;;;;;;5033248;28;19925;-82
2022/04/05 04:16:38;;;;;;;;;;;9.60;66.30;;;;;;5033759;28;20050;-82
2022/04/05 04:19:04;;;;;;;;;;;9.60;65.80;;;;;;5035182;28;19920;-82
2022/04/05 04:21:29;;;;;;;;;;;9.60;65.40;;;;;;5031234;28;19917;-84
2022/04/05 04:23:55;;;;;;;;;;;9.70;65.30;;;;;;5033885;28;19913;-81
2022/04/05 04:26:20;;;;;;;;;;;9.70;65.00;;;;;;5031708;28;19920;-82
2022/04/05 04:28:49;;;;;;;;;;;9.70;64.20;;;;;;5030633;28;19913;-83
2022/04/05 04:31:14;;;;;;;;;;;9.70;63.90;;;;;;5032627;28;19917;-82
2022/04/05 04:33:40;;;;;;;;;;;9.70;64.20;;;;;;5030248;28;19921;-84
2022/04/05 04:36:05;;;;;;;;;;;9.80;64.10;;;;;;5031745;28;19914;-83
2022/04/05 04:38:31;;;;;;;;;;;9.80;63.80;;;;;;5031600;28;20346;-81
2022/04/05 04:40:56;;;;;;;;;;;9.80;63.10;;;;;;5037949;28;19913;-82
2022/04/05 04:43:24;;;;;;;;;;;9.90;62.10;;;;;;5037911;28;19985;-80
2022/04/05 04:45:50;;;;;;;;;;;9.90;61.00;;;;;;5036948;28;19941;-82
2022/04/05 04:48:15;;;;;;;;;;;9.90;59.90;;;;;;5038176;28;20092;-82
2022/04/05 04:50:41;;;;;;;;;;;9.90;59.20;;;;;;5037714;28;20007;-81
2022/04/05 04:53:06;;;;;;;;;;;9.90;58.40;;;;;;5037686;28;19913;-83
2022/04/05 04:55:32;;;;;;;;;;;10.00;57.40;;;;;;5035072;28;20007;-83
2022/04/05 04:57:58;;;;;;;;;;;10.00;56.80;;;;;;5036984;28;19941;-82
2022/04/05 05:00:23;;;;;;;;;;;10.00;56.20;;;;;;5035561;28;19917;-82
2022/04/05 05:02:50;;;;;;;;;;;10.00;55.90;;;;;;5036115;28;19913;-82
2022/04/05 05:05:16;;;;;;;;;;;10.00;55.40;;;;;;5036728;28;19913;-82
2022/04/05 05:07:41;;;;;;;;;;;10.00;55.20;;;;;;5036512;28;20366;-82
2022/04/05 05:10:07;;;;;;;;;;;10.00;54.50;;;;;;5039295;28;19945;-82
2022/04/05 05:12:33;;;;;;;;;;;10.00;54.10;;;;;;5036496;28;19921;-83
2022/04/05 05:14:59;;;;;;;;;;;10.00;54.00;;;;;;5039330;28;20366;-81
2022/04/05 05:17:24;;;;;;;;;;;10.00;54.20;;;;;;5028216;28;19913;-82
2022/04/05 05:19:49;;;;;;;;;;;10.00;54.40;;;;;;5039502;28;20374;-84
2022/04/05 05:22:15;;;;;;;;;;;10.10;54.00;;;;;;5037925;28;20323;-81
2022/04/05 05:24:40;;;;;;;;;;;10.10;53.80;;;;;;5039746;28;19925;-83
2022/04/05 05:27:06;;;;;;;;;;;10.10;53.80;;;;;;5040605;28;19960;-83
2022/04/05 05:29:31;;;;;;;;;;;10.10;53.50;;;;;;5039840;28;19920;-81
2022/04/05 05:31:57;;;;;;;;;;;10.10;53.00;;;;;;5036381;28;19913;-82
2022/04/05 05:34:24;;;;;;;;;;;10.10;52.10;;;;;;5037529;28;19952;-83
2022/04/05 05:36:49;;;;;;;;;;;10.10;51.60;;;;;;5034328;28;19967;-82
2022/04/05 05:39:15;;;;;;;;;;;10.20;52.40;;;;;;5040881;28;19913;-82
2022/04/05 05:41:40;;;;;;;;;;;10.30;52.30;;;;;;5038564;28;20313;-83
2022/04/05 05:44:05;;;;;;;;;;;10.30;50.20;;;;;;5042557;28;19909;-83
2022/04/05 05:46:31;;;;;;;;;;;10.40;47.60;;;;;;5037945;28;19921;-83
2022/04/05 05:48:56;;;;;;;;;;;10.40;44.60;;;;;;5035724;28;19963;-82
2022/04/05 05:51:22;;;;;;;;;;;10.40;42.40;;;;;;5034633;28;20320;-83
2022/04/05 05:53:47;;;;;;;;;;;10.40;40.90;;;;;;5038888;28;20263;-80
2022/04/05 05:56:14;;;;;;;;;;;10.50;40.00;;;;;;5035636;28;19924;-83
2022/04/05 05:58:40;;;;;;;;;;;10.50;39.80;;;;;;5037503;28;19913;-83
2022/04/05 06:01:05;;;;;;;;;;;10.50;40.00;;;;;;5042286;28;19974;-82
2022/04/05 06:03:30;;;;;;;;;;;10.50;40.40;;;;;;5047695;28;19923;-81
2022/04/05 06:05:56;;;;;;;;;;;10.50;40.80;;;;;;5044143;28;19913;-82
2022/04/05 06:08:22;;;;;;;;;;;10.50;40.50;;;;;;5044230;28;19920;-81
2022/04/05 06:10:47;;;;;;;;;;;10.50;40.00;;;;;;5041885;28;19913;-82
2022/04/05 06:13:13;;;;;;;;;;;10.50;40.20;;;;;;5047277;28;19964;-81
2022/04/05 06:15:38;;;;;;;;;;;10.50;40.70;;;;;;5044513;28;19917;-81
2022/04/05 06:18:04;;;;;;;;;;;10.50;41.00;;;;;;5056479;28;19909;-80
2022/04/05 06:20:29;;;;;;;;;;;10.50;40.30;;;;;;5051788;28;19910;-82
2022/04/05 06:22:56;;;;;;;;;;;10.50;39.70;;;;;;5033108;28;20439;-81
2022/04/05 06:25:24;;;;;;;;;;;10.50;39.70;;;;;;5038726;28;19919;-82
2022/04/05 06:27:50;;;;;;;;;;;10.50;39.30;;;;;;5044205;28;19960;-81
2022/04/05 06:30:16;;;;;;;;;;;10.50;39.30;;;;;;5047424;28;19909;-81
2022/04/05 06:32:42;;;;;;;;;;;10.60;38.60;;;;;;5042333;28;20008;-82
2022/04/05 06:35:08;;;;;;;;;;;10.60;38.00;;;;;;5045946;28;19948;-82
2022/04/05 06:37:35;;;;;;;;;;;10.60;38.10;;;;;;5040465;28;20385;-82
2022/04/05 06:40:01;;;;;;;;;;;10.60;37.60;;;;;;5032637;28;19928;-82
2022/04/05 06:42:29;;;;;;;;;;;10.60;37.80;;;;;;5033896;28;20413;-82
2022/04/05 06:44:54;;;;;;;;;;;10.60;37.40;;;;;;5034983;28;19948;-82
2022/04/05 06:47:20;;;;;;;;;;;10.70;36.50;;;;;;5039014;28;19913;-82
2022/04/05 06:49:45;;;;;;;;;;;10.70;36.70;;;;;;5042455;28;19913;-82
2022/04/05 06:52:11;;;;;;;;;;;10.80;35.40;;;;;;5033348;28;19917;-81
2022/04/05 06:54:36;;;;;;;;;;;10.80;32.70;;;;;;5037536;28;20505;-83
2022/04/05 06:57:02;;;;;;;;;;;10.80;29.70;;;;;;5039367;28;19920;-84
2022/04/05 06:59:27;;;;;;;;;;;10.80;29.50;;;;;;5055193;28;20552;-82
2022/04/05 07:01:53;;;;;;;;;;;10.80;29.40;;;;;;5048737;28;19913;-81
2022/04/05 07:04:18;;;;;;;;;;;10.80;30.50;;;;;;5047908;28;19913;-82
2022/04/05 07:06:43;;;;;;;;;;;10.70;30.60;;;;;;5042416;28;20413;-82
2022/04/05 07:09:09;;;;;;;;;;;10.70;31.90;;;;;;5039814;28;19921;-81
2022/04/05 07:11:34;;;;;;;;;;;10.70;33.80;;;;;;5042718;28;19972;-83
2022/04/05 07:14:00;;;;;;;;;;;10.70;35.50;;;;;;5038133;28;19986;-82
2022/04/05 07:16:25;;;;;;;;;;;10.70;36.20;;;;;;5041401;28;19912;-82
2022/04/05 07:18:51;;;;;;;;;;;10.70;36.90;;;;;;5033258;28;19913;-82
2022/04/05 07:21:20;;;;;;;;;;;10.60;37.70;;;;;;5030833;28;19921;-82
2022/04/05 07:23:46;;;;;;;;;;;10.60;38.10;;;;;;5027249;28;19983;-82
2022/04/05 07:26:12;;;;;;;;;;;10.60;40.00;;;;;;5027551;28;19921;-81
2022/04/05 07:28:37;;;;;;;;;;;10.60;40.70;;;;;;5027696;28;20405;-81
2022/04/05 07:31:03;;;;;;;;;;;10.60;40.20;;;;;;5032627;28;19913;-82
2022/04/05 07:33:29;;;;;;;;;;;10.70;39.70;;;;;;5040223;28;19955;-82
2022/04/05 07:35:54;;;;;;;;;;;10.70;37.50;;;;;;5036683;28;20373;-81
2022/04/05 07:38:19;;;;;;;;;;;10.90;33.80;;;;;;5037413;28;19928;-81
2022/04/05 07:40:48;;;;;;;;;;;11.00;30.10;;;;;;5034825;28;20138;-82
2022/04/05 07:43:23;;;;;;;;;;;11.10;22.40;;;;;;5029030;28;20362;-82
2022/04/05 07:45:49;;;;;;;;;;;11.20;16.70;;;;;;5037147;28;19913;-82
2022/04/05 07:48:19;;;;;;;;;;;11.30;9.10;;;;;;5040578;28;19919;-82
2022/04/05 07:50:44;;;;;;;;;;;11.30;5.10;;;;;;5037776;28;19917;-82
2022/04/05 07:53:10;;;;;;;;;;;11.40;1.40;;;;;;5037466;28;19920;-82
2022/04/05 07:55:35;;;;;;;;;;;11.50;1.00;;;;;;5038306;28;19931;-82
2022/04/05 07:58:00;;;;;;;;;;;11.70;1.00;;;;;;5039859;28;19939;-82
2022/04/05 08:00:27;;;;;;;;;;;11.90;1.00;;;;;;5030892;28;19919;-82
2022/04/05 08:02:52;;;;;;;;;;;11.90;1.00;;;;;;5032360;28;19916;-83
2022/04/05 08:05:18;;;;;;;;;;;11.90;1.00;;;;;;5034733;28;19917;-82
2022/04/05 08:07:44;;;;;;;;;;;12.00;1.00;;;;;;5034451;28;20052;-81
2022/04/05 08:10:10;;;;;;;;;;;11.90;1.00;;;;;;5029933;28;20259;-82
2022/04/05 08:12:38;;;;;;;;;;;11.90;1.00;;;;;;5033306;28;20331;-82
2022/04/05 08:15:04;;;;;;;;;;;12.00;1.00;;;;;;5036191;28;20004;-82
2022/04/05 08:17:30;;;;;;;;;;;12.00;1.00;;;;;;5040252;28;20411;-82
2022/04/05 08:19:56;;;;;;;;;;;12.00;1.00;;;;;;5040596;28;19913;-82
2022/04/05 08:22:21;;;;;;;;;;;12.00;1.00;;;;;;5040059;28;19923;-82
2022/04/05 08:24:47;;;;;;;;;;;12.00;1.00;;;;;;5043168;28;19920;-83
2022/04/05 08:27:12;;;;;;;;;;;12.10;1.00;;;;;;5036159;28;20008;-82
2022/04/05 08:29:41;;;;;;;;;;;12.20;1.00;;;;;;5035264;28;20821;-82
2022/04/05 08:32:06;;;;;;;;;;;12.30;1.00;;;;;;5043517;28;19913;-81
2022/04/05 08:34:33;;;;;;;;;;;12.30;1.00;;;;;;5043613;28;19936;-82
2022/04/05 08:36:59;;;;;;;;;;;12.20;1.00;;;;;;5041186;28;19913;-82
2022/04/05 08:39:27;;;;;;;;;;;12.10;1.00;;;;;;5042291;28;19966;-82
2022/04/05 08:41:55;;;;;;;;;;;12.00;1.00;;;;;;5040613;28;19914;-82
2022/04/05 08:44:20;;;;;;;;;;;11.90;1.00;;;;;;5032019;28;19917;-83
2022/04/05 08:46:46;;;;;;;;;;;11.90;1.00;;;;;;5039518;28;19919;-82
2022/04/05 08:49:11;;;;;;;;;;;11.80;1.00;;;;;;5043039;28;19919;-82
2022/04/05 08:51:37;;;;;;;;;;;11.90;1.00;;;;;;5043649;28;19923;-82
2022/04/05 08:54:03;;;;;;;;;;;11.70;1.00;;;;;;5045602;28;20008;-82
2022/04/05 08:56:30;;;;;;;;;;;11.80;1.00;;;;;;5043619;28;19994;-82
2022/04/05 08:58:56;;;;;;;;;;;11.70;1.00;;;;;;5037890;28;19917;-82
2022/04/05 09:01:22;;;;;;;;;;;11.70;1.00;;;;;;5038448;28;20273;-82
2022/04/05 09:03:47;;;;;;;;;;;11.70;1.00;;;;;;5042222;28;19924;-82
2022/04/05 09:06:27;;;;;;;;;;;11.70;1.00;;;;;;5039125;28;19920;-82
2022/04/05 09:09:09;;;;;;;;;;;11.70;1.00;;;;;;5041676;28;19917;-81
2022/04/05 09:11:35;;;;;;;;;;;11.80;1.00;;;;;;5044921;28;19924;-82
2022/04/05 09:14:01;;;;;;;;;;;11.70;1.00;;;;;;5048254;28;19927;-82
2022/04/05 09:16:33;;;;;;;;;;;11.70;1.00;;;;;;5033358;28;19916;-81
2022/04/05 09:19:00;;;;;;;;;;;11.80;1.00;;;;;;5045107;28;20374;-82
2022/04/05 09:21:25;;;;;;;;;;;11.80;1.00;;;;;;5042876;28;19909;-82
2022/04/05 09:23:52;;;;;;;;;;;12.00;1.00;;;;;;5046435;28;19919;-82
2022/04/05 09:26:18;;;;;;;;;;;12.20;1.00;;;;;;5042567;28;19916;-82
2022/04/05 09:28:48;;;;;;;;;;;12.40;1.00;;;;;;5047280;28;20346;-81
2022/04/05 09:31:18;;;;;;;;;;;12.50;1.00;;;;;;5039837;28;19916;-82
2022/04/05 09:34:03;;;;;;;;;;;12.80;1.00;;;;;;5036627;28;19939;-81
2022/04/05 09:36:39;;;;;;;;;;;12.90;1.00;;;;;;5042382;28;19940;-83
2022/04/05 09:39:15;;;;;;;;;;;13.20;1.00;;;;;;5046371;28;19920;-81
2022/04/05 09:41:41;;;;;;;;;;;13.40;1.00;;;;;;5042008;28;20621;-81
2022/04/05 09:44:06;;;;;;;;;;;13.50;99.90;;;;;;5047401;28;19967;-82
2022/04/05 09:46:33;;;;;;;;;;;13.80;99.90;;;;;;5041930;28;19913;-83
2022/04/05 09:49:01;;;;;;;;;;;14.10;99.90;;;;;;5046070;28;20008;-83
2022/04/05 09:51:27;;;;;;;;;;;14.20;1.00;;;;;;5036867;28;19936;-82
2022/04/05 09:53:55;;;;;;;;;;;14.40;1.00;;;;;;5038655;28;19925;-83
2022/04/05 09:56:21;;;;;;;;;;;14.60;1.00;;;;;;5038402;28;19924;-84
2022/04/05 09:58:48;;;;;;;;;;;14.50;1.00;;;;;;5041648;28;19921;-82
2022/04/05 10:01:13;;;;;;;;;;;14.50;1.00;;;;;;5039861;28;20296;-83
2022/04/05 10:03:40;;;;;;;;;;;14.50;99.90;;;;;;5043949;28;19919;-83
2022/04/05 10:06:06;;;;;;;;;;;14.40;99.90;;;;;;5048639;28;19920;-81
2022/04/05 10:08:32;;;;;;;;;;;14.30;1.00;;;;;;5047266;28;19909;-82
2022/04/05 10:10:59;;;;;;;;;;;14.30;1.00;;;;;;5039002;28;19917;-83
2022/04/05 10:13:24;;;;;;;;;;;14.20;67.90;;;;;;5043716;28;19958;-83
2022/04/05 10:15:51;;;;;;;;;;;14.30;99.90;;;;;;5036508;28;19992;-82
2022/04/05 10:18:17;;;;;;;;;;;14.20;1.00;;;;;;5043169;28;19913;-82
2022/04/05 10:20:42;;;;;;;;;;;14.20;99.90;;;;;;5042075;28;19917;-84
2022/04/05 10:23:08;;;;;;;;;;;14.10;99.90;;;;;;5049031;28;20016;-82
2022/04/05 10:25:34;;;;;;;;;;;14.10;99.90;;;;;;5048147;28;19924;-83
2022/04/05 10:28:00;;;;;;;;;;;14.00;99.90;;;;;;5047594;28;19917;-82
2022/04/05 10:30:30;;;;;;;;;;;14.10;99.90;;;;;;5042592;28;19931;-80
2022/04/05 10:33:14;;;;;;;;;;;14.10;1.00;;;;;;5037186;28;19916;-82
2022/04/05 10:35:50;;;;;;;;;;;13.90;99.90;;;;;;5033637;28;19928;-83
2022/04/05 10:38:18;;;;;;;;;;;13.60;1.00;;;;;;5037241;28;19921;-82
2022/04/05 10:41:03;;;;;;;;;;;13.60;35.30;;;;;;5036542;28;20083;-79
2022/04/05 10:43:29;;;;;;;;;;;13.60;99.90;;;;;;5042505;28;19960;-83
2022/04/05 10:45:54;;;;;;;;;;;13.40;99.90;;;;;;5038474;28;19967;-82
2022/04/05 10:48:25;;;;;;;;;;;13.30;99.90;;;;;;5041098;28;19923;-82
2022/04/05 10:51:00;;;;;;;;;;;13.20;99.90;;;;;;5032925;28;19917;-82
2022/04/05 10:53:32;;;;;;;;;;;13.30;1.00;;;;;;5035163;28;20004;-82
2022/04/05 10:56:03;;;;;;;;;;;13.40;1.00;;;;;;5041501;28;19921;-81
2022/04/05 10:58:49;;;;;;;;;;;13.50;1.00;;;;;;5038094;28;20404;-82
2022/04/05 11:01:18;;;;;;;;;;;13.50;99.90;;;;;;5034340;28;20415;-82
2022/04/05 11:04:03;;;;;;;;;;;13.70;99.90;;;;;;5036062;28;19919;-81
2022/04/05 11:06:28;;;;;;;;;;;13.80;99.90;;;;;;5035520;28;20382;-82
2022/04/05 11:08:54;;;;;;;;;;;13.80;99.90;;;;;;5041618;28;20016;-81
2022/04/05 11:11:20;;;;;;;;;;;13.80;99.90;;;;;;5041399;28;20364;-80
2022/04/05 11:13:48;;;;;;;;;;;13.80;99.90;;;;;;5039017;28;19935;-82
2022/04/05 11:16:14;;;;;;;;;;;13.70;99.90;;;;;;5034924;28;19935;-82
2022/04/05 11:18:41;;;;;;;;;;;13.70;99.90;;;;;;5035927;28;20393;-82
2022/04/05 11:21:08;;;;;;;;;;;13.60;99.90;;;;;;5044499;28;20011;-82
2022/04/05 11:23:40;;;;;;;;;;;13.60;99.90;;;;;;5048151;28;19916;-82
2022/04/05 11:26:24;;;;;;;;;;;13.70;99.90;;;;;;5039143;28;19921;-83
2022/04/05 11:28:49;;;;;;;;;;;14.00;99.90;;;;;;5036885;28;19917;-82
2022/04/05 11:31:27;;;;;;;;;;;14.00;99.90;;;;;;5033313;28;19924;-83
2022/04/05 11:33:52;;;;;;;;;;;13.90;99.90;;;;;;5031670;28;19944;-83
2022/04/05 11:36:21;;;;;;;;;;;14.10;8.30;;;;;;5037111;28;19913;-81
2022/04/05 11:38:48;;;;;;;;;;;14.30;8.70;;;;;;5035953;28;19932;-83
2022/04/05 11:41:23;;;;;;;;;;;14.70;1.00;;;;;;5039321;28;19916;-83
2022/04/05 11:43:50;;;;;;;;;;;15.00;1.00;;;;;;5038990;28;19967;-82
2022/04/05 11:46:19;;;;;;;;;;;15.10;99.90;;;;;;5034044;28;19940;-83
2022/04/05 11:48:47;;;;;;;;;;;15.40;99.90;;;;;;5036965;28;19919;-83
2022/04/05 11:51:34;;;;;;;;;;;15.40;1.00;;;;;;5033245;28;19921;-81
2022/04/05 11:54:04;;;;;;;;;;;15.60;1.00;;;;;;5034422;28;19925;-83
2022/04/05 11:56:30;;;;;;;;;;;15.40;31.00;;;;;;5039228;28;20427;-83
2022/04/05 11:58:56;;;;;;;;;;;15.30;1.00;;;;;;5040884;28;19996;-82
2022/04/05 12:01:23;;;;;;;;;;;15.20;57.40;;;;;;5036626;28;19920;-83
2022/04/05 12:03:52;;;;;;;;;;;15.10;99.90;;;;;;5039659;28;20313;-83
2022/04/05 12:06:23;;;;;;;;;;;14.70;1.00;;;;;;5038132;28;20430;-83
2022/04/05 12:08:49;;;;;;;;;;;14.70;99.90;;;;;;5040305;28;19944;-82
2022/04/05 12:11:16;;;;;;;;;;;14.90;99.90;;;;;;5040737;28;19952;-83
2022/04/05 12:13:49;;;;;;;;;;;15.00;99.90;;;;;;5035693;28;20055;-82
2022/04/05 12:16:14;;;;;;;;;;;15.00;99.90;;;;;;5039326;28;19913;-83
2022/04/05 12:18:42;;;;;;;;;;;15.20;1.00;;;;;;5026056;28;19917;-83
2022/04/05 12:21:11;;;;;;;;;;;15.50;1.00;;;;;;5043343;28;19967;-83
2022/04/05 12:23:40;;;;;;;;;;;15.50;7.60;;;;;;5030618;28;19920;-83
2022/04/05 12:26:13;;;;;;;;;;;15.70;1.00;;;;;;5044283;28;19967;-82
2022/04/05 12:28:42;;;;;;;;;;;15.60;99.90;;;;;;5035000;28;19920;-82
2022/04/05 12:31:09;;;;;;;;;;;15.80;1.00;;;;;;5035935;28;19959;-82
2022/04/05 12:33:35;;;;;;;;;;;15.60;99.90;;;;;;5030910;28;19936;-83
2022/04/05 12:36:01;;;;;;;;;;;15.20;1.00;;;;;;5036630;28;20373;-83
2022/04/05 12:38:26;;;;;;;;;;;15.00;99.90;;;;;;5040970;28;19912;-83
2022/04/05 12:40:52;;;;;;;;;;;14.60;99.90;;;;;;5036667;28;20025;-83
2022/04/05 12:43:21;;;;;;;;;;;14.40;99.90;;;;;;5034214;28;19919;-82
2022/04/05 12:45:49;;;;;;;;;;;14.20;3.60;;;;;;5039665;28;19913;-83
2022/04/05 12:48:20;;;;;;;;;;;14.20;99.90;;;;;;5043269;28;19921;-83
2022/04/05 12:50:49;;;;;;;;;;;14.40;1.00;;;;;;5041626;28;19913;-82
2022/04/05 12:53:28;;;;;;;;;;;14.90;1.00;;;;;;5035695;28;19924;-83
2022/04/05 12:55:54;;;;;;;;;;;15.20;1.00;;;;;;5042204;28;20813;-83
2022/04/05 12:58:38;;;;;;;;;;;15.30;1.00;;;;;;5044845;28;20373;-83
2022/04/05 13:01:16;;;;;;;;;;;15.50;1.00;;;;;;5042964;28;19913;-83
2022/04/05 13:03:42;;;;;;;;;;;15.50;8.70;;;;;;5045472;28;19955;-83
2022/04/05 13:06:20;;;;;;;;;;;15.60;1.00;;;;;;5050692;28;19917;-83
2022/04/05 13:08:46;;;;;;;;;;;15.70;1.00;;;;;;5032961;28;20373;-83
2022/04/05 13:11:25;;;;;;;;;;;15.60;99.90;;;;;;5042345;28;19940;-83
2022/04/05 13:13:59;;;;;;;;;;;15.60;1.00;;;;;;5035765;28;20011;-83
2022/04/05 13:16:26;;;;;;;;;;;15.70;1.00;;;;;;5041373;28;19919;-83
2022/04/05 13:18:51;;;;;;;;;;;15.70;1.00;;;;;;5046158;28;20670;-83
2022/04/05 13:21:18;;;;;;;;;;;15.70;1.00;;;;;;5052386;28;19919;-85
2022/04/05 13:24:04;;;;;;;;;;;15.60;1.00;;;;;;5042759;28;19995;-82
2022/04/05 13:26:29;;;;;;;;;;;15.70;1.00;;;;;;5037122;28;19920;-84
2022/04/05 13:29:09;;;;;;;;;;;16.00;1.00;;;;;;5047516;28;19918;-84
2022/04/05 13:31:40;;;;;;;;;;;16.20;99.90;;;;;;5035752;28;20298;-83
2022/04/05 13:34:06;;;;;;;;;;;16.30;81.90;;;;;;5040957;28;20573;-84
2022/04/05 13:36:32;;;;;;;;;;;16.60;1.00;;;;;;5052338;28;19996;-83
2022/04/05 13:38:57;;;;;;;;;;;17.00;1.00;;;;;;5043897;28;19920;-83
2022/04/05 13:41:23;;;;;;;;;;;17.10;99.90;;;;;;5045316;28;20419;-82
2022/04/05 13:43:49;;;;;;;;;;;17.10;99.90;;;;;;5042137;28;19973;-84
2022/04/05 13:46:14;;;;;;;;;;;16.90;99.90;;;;;;5042633;28;19962;-83
2022/04/05 13:48:40;;;;;;;;;;;16.80;99.90;;;;;;5045482;28;19913;-83
2022/04/05 13:51:05;;;;;;;;;;;16.40;20.40;;;;;;5051705;28;19962;-84
2022/04/05 13:53:31;;;;;;;;;;;16.10;47.50;;;;;;5045430;28;19936;-84
2022/04/05 13:55:56;;;;;;;;;;;15.90;99.90;;;;;;5044331;28;19916;-83
2022/04/05 13:58:22;;;;;;;;;;;15.70;99.90;;;;;;5047814;28;19916;-83
2022/04/05 14:00:48;;;;;;;;;;;15.60;99.90;;;;;;5039684;28;20004;-81
2022/04/05 14:03:13;;;;;;;;;;;15.40;99.90;;;;;;5041509;28;19919;-83
2022/04/05 14:05:38;;;;;;;;;;;15.30;99.90;;;;;;5038965;28;19913;-83
2022/04/05 14:08:06;;;;;;;;;;;15.30;99.90;;;;;;5037810;28;19913;-83
2022/04/05 14:10:32;;;;;;;;;;;15.40;1.00;;;;;;5037531;28;19920;-82
2022/04/05 14:12:57;;;;;;;;;;;15.30;1.00;;;;;;5031275;28;19917;-82
2022/04/05 14:15:23;;;;;;;;;;;15.20;1.00;;;;;;5037599;28;20419;-82
2022/04/05 14:17:48;;;;;;;;;;;15.20;1.00;;;;;;5041103;28;19913;-81
2022/04/05 14:20:14;;;;;;;;;;;15.20;1.00;;;;;;5039137;28;19912;-83
2022/04/05 14:22:39;;;;;;;;;;;15.00;1.00;;;;;;5031794;28;19917;-82
2022/04/05 14:25:05;;;;;;;;;;;14.80;99.90;;;;;;5036022;28;19913;-83